Time;durP1;ratioP1;P1;durP2;ratioP2;P2;SDS_P1;SDS_P2;PMS_P1;PMS_P2;Temp;Humidity;BMP_temperature;BMP_pressure;BME280_temperature;BME280_humidity;BME280_pressure;Samples;Min_cycle;Max_cycle;Signal;HPM_P1;HPM_P2
2022/09/01 00:01:52;;;;;;;1.40;0.68;;;16.00;99.90;;;;;;5054566;28;20033;-84
2022/09/01 00:04:25;;;;;;;1.45;0.60;;;16.00;99.90;;;;;;5054526;28;20048;-84
2022/09/01 00:06:53;;;;;;;2.78;0.70;;;16.00;99.90;;;;;;5053492;28;20047;-84
2022/09/01 00:09:21;;;;;;;3.00;0.75;;;16.00;99.90;;;;;;5053608;28;20037;-84
2022/09/01 00:11:51;;;;;;;2.50;0.52;;;16.00;99.90;;;;;;5053813;28;20127;-84
2022/09/01 00:14:20;;;;;;;1.67;0.70;;;15.90;99.90;;;;;;5037130;28;20415;-84
2022/09/01 00:16:46;;;;;;;1.58;0.60;;;15.90;99.90;;;;;;5037030;28;20076;-84
2022/09/01 00:19:12;;;;;;;1.42;0.70;;;15.90;99.90;;;;;;5053940;28;20033;-84
2022/09/01 00:21:41;;;;;;;3.15;0.80;;;15.80;99.90;;;;;;5054062;28;20055;-84
2022/09/01 00:24:08;;;;;;;2.03;0.70;;;15.80;99.90;;;;;;5053455;28;20048;-84
2022/09/01 00:26:34;;;;;;;1.52;0.90;;;15.70;99.90;;;;;;5052488;28;20045;-84
2022/09/01 00:29:01;;;;;;;2.03;0.70;;;15.70;99.90;;;;;;5069269;28;20051;-84
2022/09/01 00:31:27;;;;;;;1.25;0.80;;;15.70;99.90;;;;;;5052751;28;20048;-84
2022/09/01 00:33:53;;;;;;;2.58;0.80;;;15.70;99.90;;;;;;5052622;28;20459;-84
2022/09/01 00:36:20;;;;;;;1.20;0.70;;;15.60;99.90;;;;;;5052695;28;20040;-84
2022/09/01 00:38:46;;;;;;;1.20;0.60;;;15.60;99.90;;;;;;5052139;28;20036;-83
2022/09/01 00:41:13;;;;;;;1.50;0.70;;;15.60;99.90;;;;;;5035959;28;20493;-83
2022/09/01 00:43:49;;;;;;;3.08;1.00;;;15.50;99.90;;;;;;5052067;28;20040;-83
2022/09/01 00:46:18;;;;;;;1.45;0.60;;;15.50;99.90;;;;;;5052122;28;20045;-83
2022/09/01 00:48:44;;;;;;;2.92;0.80;;;15.40;99.90;;;;;;5051856;28;20052;-83
2022/09/01 00:51:11;;;;;;;1.27;0.80;;;15.40;99.90;;;;;;5051919;28;20114;-82
2022/09/01 00:53:40;;;;;;;1.23;0.75;;;15.40;99.90;;;;;;5035586;28;20074;-83
2022/09/01 00:56:06;;;;;;;6.13;1.10;;;15.40;99.90;;;;;;5068153;28;20056;-83
2022/09/01 00:58:35;;;;;;;1.52;0.90;;;15.40;99.90;;;;;;5051724;28;20393;-83
2022/09/01 01:01:01;;;;;;;1.10;0.80;;;15.40;99.90;;;;;;5051558;28;20060;-83
2022/09/01 01:03:29;;;;;;;;;;;15.30;99.90;;;;;;5052182;28;20117;-83
2022/09/01 01:05:56;;;;;;;;;;;15.30;99.90;;;;;;5051997;28;19916;-83
2022/09/01 01:08:32;;;;;;;3.33;1.20;;;15.30;99.90;;;;;;5052068;28;19916;-83
2022/09/01 01:11:03;;;;;;;2.30;0.80;;;15.30;99.90;;;;;;5052279;28;20101;-83
2022/09/01 01:13:35;;;;;;;3.78;0.70;;;15.30;99.90;;;;;;5069371;28;20036;-83
2022/09/01 01:16:02;;;;;;;2.10;0.77;;;15.30;99.90;;;;;;5036851;28;20052;-83
2022/09/01 01:18:28;;;;;;;2.70;0.98;;;15.30;99.90;;;;;;5052531;28;20125;-83
2022/09/01 01:24:05;;;;;;;1.58;0.90;;;15.30;99.90;;;;;;5052228;28;20758;-83
2022/09/01 01:26:31;;;;;;;1.95;0.95;;;15.20;99.90;;;;;;5052704;28;20123;-83
2022/09/01 01:28:57;;;;;;;1.20;0.70;;;15.20;99.90;;;;;;5035630;28;20080;-83
2022/09/01 01:31:24;;;;;;;2.22;1.13;;;15.20;99.90;;;;;;5035642;28;20055;-83
2022/09/01 01:33:54;;;;;;;1.67;0.85;;;15.10;99.90;;;;;;5052612;28;20050;-83
2022/09/01 01:36:24;;;;;;;2.65;0.90;;;15.10;99.90;;;;;;5052083;28;20056;-83
2022/09/01 01:38:51;;;;;;;1.33;0.93;;;15.10;99.90;;;;;;5052339;28;20033;-83
2022/09/01 01:41:20;;;;;;;1.80;0.95;;;15.10;99.90;;;;;;5035286;28;20468;-83
2022/09/01 01:43:47;;;;;;;1.35;0.77;;;15.10;99.90;;;;;;5050692;28;20041;-83
2022/09/01 01:46:13;;;;;;;3.22;1.08;;;15.10;99.90;;;;;;5050890;28;20041;-83
2022/09/01 01:48:41;;;;;;;1.23;0.70;;;15.00;99.90;;;;;;5034521;28;20045;-83
2022/09/01 01:51:09;;;;;;;2.47;1.00;;;15.00;99.90;;;;;;5050564;28;20080;-83
2022/09/01 01:53:36;;;;;;;2.08;1.20;;;15.00;99.90;;;;;;5034301;28;20041;-83
2022/09/01 01:56:02;;;;;;;1.00;0.88;;;15.10;99.90;;;;;;5033816;28;20044;-83
2022/09/01 01:58:29;;;;;;;0.70;0.70;;;15.00;99.90;;;;;;5050658;28;20040;-83
2022/09/01 02:00:57;;;;;;;1.45;0.85;;;15.00;99.90;;;;;;5050766;28;20040;-83
2022/09/01 02:03:27;;;;;;;2.10;1.00;;;15.00;99.90;;;;;;5050869;28;20132;-83
2022/09/01 02:05:54;;;;;;;1.40;1.00;;;15.00;99.90;;;;;;5050913;28;20037;-83
2022/09/01 02:08:24;;;;;;;2.28;0.90;;;15.10;99.90;;;;;;5050752;28;20132;-83
2022/09/01 02:10:52;;;;;;;1.20;0.90;;;15.10;99.90;;;;;;5049729;28;20040;-83
2022/09/01 02:13:21;;;;;;;1.40;1.00;;;15.10;99.90;;;;;;5050725;28;20513;-83
2022/09/01 02:15:52;;;;;;;1.48;0.77;;;15.10;99.90;;;;;;5033467;28;20118;-83
2022/09/01 02:18:26;;;;;;;1.95;0.90;;;15.10;99.90;;;;;;5050434;28;20029;-83
2022/09/01 02:20:53;;;;;;;2.47;1.10;;;15.10;99.90;;;;;;5050644;28;20397;-83
2022/09/01 02:23:24;;;;;;;2.30;1.10;;;15.10;99.90;;;;;;5033807;28;20044;-83
2022/09/01 02:25:53;;;;;;;1.13;0.90;;;15.10;99.90;;;;;;5050284;28;20381;-83
2022/09/01 02:28:21;;;;;;;1.58;1.05;;;15.10;99.90;;;;;;5050679;28;20519;-83
2022/09/01 02:30:58;;;;;;;1.73;1.13;;;15.10;99.90;;;;;;5050232;28;20049;-83
2022/09/01 02:33:25;;;;;;;;;;;15.10;99.90;;;;;;5050738;28;20049;-83
2022/09/01 02:35:54;;;;;;;1.33;1.02;;;15.10;99.90;;;;;;5049690;28;19924;-83
2022/09/01 02:38:25;;;;;;;2.38;0.90;;;15.10;99.90;;;;;;5050399;28;20610;-83
2022/09/01 02:40:52;;;;;;;1.73;0.90;;;15.10;99.90;;;;;;5050412;28;20145;-83
2022/09/01 02:43:19;;;;;;;1.52;0.90;;;15.10;99.90;;;;;;5034492;28;20033;-83
2022/09/01 02:45:58;;;;;;;1.30;1.08;;;15.10;99.90;;;;;;5051435;28;20496;-83
2022/09/01 02:48:36;;;;;;;2.95;0.95;;;15.10;99.90;;;;;;5051688;28;20045;-83
2022/09/01 02:51:15;;;;;;;4.32;1.23;;;15.10;99.90;;;;;;5034397;28;20044;-83
2022/09/01 02:53:43;;;;;;;2.03;1.10;;;15.00;99.90;;;;;;5051410;28;20094;-83
2022/09/01 02:56:14;;;;;;;1.73;0.90;;;15.00;99.90;;;;;;5051043;28;20048;-83
2022/09/01 02:58:45;;;;;;;2.28;1.00;;;15.00;99.90;;;;;;5050344;28;20397;-83
2022/09/01 03:01:12;;;;;;;2.22;1.08;;;15.00;99.90;;;;;;5049915;28;20048;-83
2022/09/01 03:03:38;;;;;;;2.00;1.05;;;14.90;99.90;;;;;;5050318;28;20047;-83
2022/09/01 03:06:11;;;;;;;2.87;1.20;;;14.90;99.90;;;;;;5060514;28;20048;-83
2022/09/01 03:08:38;;;;;;;3.22;1.50;;;14.90;99.90;;;;;;5070156;28;20393;-83
2022/09/01 03:11:09;;;;;;;2.20;0.93;;;14.90;99.90;;;;;;5070204;28;20048;-83
2022/09/01 03:13:36;;;;;;;2.08;1.30;;;14.90;99.90;;;;;;5070321;28;20040;-83
2022/09/01 03:16:03;;;;;;;2.28;1.10;;;14.80;99.90;;;;;;5069759;28;20052;-83
2022/09/01 03:18:29;;;;;;;2.33;1.08;;;14.80;99.90;;;;;;5036930;28;20040;-83
2022/09/01 03:20:55;;;;;;;3.23;1.30;;;14.80;99.90;;;;;;5071376;28;20094;-83
2022/09/01 03:23:20;;;;;;;2.22;1.00;;;14.80;99.90;;;;;;5066035;28;20287;-83
2022/09/01 03:25:47;;;;;;;2.93;1.13;;;14.80;99.90;;;;;;5037067;28;20036;-83
2022/09/01 03:28:14;;;;;;;2.10;0.98;;;14.80;99.90;;;;;;5070192;28;20345;-83
2022/09/01 03:30:48;;;;;;;1.80;1.23;;;14.80;99.90;;;;;;5053570;28;20052;-83
2022/09/01 03:33:15;;;;;;;1.83;1.20;;;14.70;99.90;;;;;;5037056;28;20106;-83
2022/09/01 03:35:42;;;;;;;2.70;1.20;;;14.70;99.90;;;;;;5053663;28;20127;-83
2022/09/01 03:38:08;;;;;;;1.80;1.30;;;14.70;99.90;;;;;;5053020;28;20033;-83
2022/09/01 03:40:35;;;;;;;5.47;1.50;;;14.70;99.90;;;;;;5061745;28;20063;-83
2022/09/01 03:43:03;;;;;;;1.63;1.20;;;14.60;99.90;;;;;;5074129;28;20041;-83
2022/09/01 03:45:34;;;;;;;3.35;1.40;;;14.60;99.90;;;;;;5091034;28;20465;-83
2022/09/01 03:48:05;;;;;;;2.30;1.27;;;14.60;99.90;;;;;;5074105;28;20067;-83
2022/09/01 03:50:31;;;;;;;2.58;1.30;;;14.60;99.90;;;;;;5074744;28;20142;-83
2022/09/01 03:52:59;;;;;;;1.85;1.40;;;14.60;99.90;;;;;;5074424;28;20373;-83
2022/09/01 03:55:33;;;;;;;3.63;1.20;;;14.60;99.90;;;;;;5057467;28;20059;-83
2022/09/01 03:58:07;;;;;;;2.08;1.33;;;14.60;99.90;;;;;;5057949;28;20047;-83
2022/09/01 04:00:41;;;;;;;3.67;1.40;;;14.60;99.90;;;;;;5036760;28;20127;-83
2022/09/01 04:03:10;;;;;;;1.55;1.30;;;14.60;99.90;;;;;;5052844;28;20049;-83
2022/09/01 04:05:37;;;;;;;2.30;1.50;;;14.60;99.90;;;;;;5070032;28;20044;-84
2022/09/01 04:08:04;;;;;;;;;;;14.60;99.90;;;;;;5053188;28;20163;-83
2022/09/01 04:10:32;;;;;;;3.30;1.50;;;14.50;99.90;;;;;;5036548;28;20383;-84
2022/09/01 04:12:58;;;;;;;2.28;1.50;;;14.50;99.90;;;;;;5053925;28;20049;-83
2022/09/01 04:15:26;;;;;;;3.05;1.60;;;14.50;99.90;;;;;;5053893;28;20076;-83
2022/09/01 04:18:18;;;;;;;5.28;1.88;;;14.50;99.90;;;;;;5053793;28;20045;-83
2022/09/01 04:20:48;;;;;;;1.90;1.50;;;14.40;99.90;;;;;;5054166;28;20037;-83
2022/09/01 04:23:28;;;;;;;1.73;1.50;;;14.40;99.90;;;;;;5070327;28;20469;-83
2022/09/01 04:25:59;;;;;;;3.55;1.70;;;14.40;99.90;;;;;;5054081;28;20435;-83
2022/09/01 04:28:33;;;;;;;3.72;1.85;;;14.40;99.90;;;;;;5053551;28;20047;-83
2022/09/01 04:31:04;;;;;;;3.38;1.50;;;14.30;99.90;;;;;;5053457;28;20099;-83
2022/09/01 04:33:35;;;;;;;3.00;1.70;;;14.30;99.90;;;;;;5036931;28;20040;-83
2022/09/01 04:36:04;;;;;;;2.22;1.73;;;14.30;99.90;;;;;;5053283;28;20044;-83
2022/09/01 04:38:30;;;;;;;3.42;1.83;;;14.30;99.90;;;;;;5036461;28;20060;-83
2022/09/01 04:40:56;;;;;;;1.90;1.70;;;14.20;99.90;;;;;;5053127;28;20045;-83
2022/09/01 04:43:23;;;;;;;2.92;1.70;;;14.20;99.90;;;;;;5052509;28;20036;-83
2022/09/01 04:45:52;;;;;;;2.45;1.80;;;14.20;99.90;;;;;;5035246;28;20078;-83
2022/09/01 04:48:21;;;;;;;2.88;1.88;;;14.10;99.90;;;;;;5051965;28;20037;-83
2022/09/01 04:50:50;;;;;;;3.60;2.10;;;14.10;99.90;;;;;;5051648;28;20076;-83
2022/09/01 04:53:17;;;;;;;3.58;2.03;;;14.10;99.90;;;;;;5035737;28;20124;-83
2022/09/01 04:55:43;;;;;;;2.47;1.95;;;14.10;99.90;;;;;;5051574;28;20057;-83
2022/09/01 04:58:16;;;;;;;2.63;1.90;;;14.00;99.90;;;;;;5052631;28;20045;-83
2022/09/01 05:00:46;;;;;;;2.28;1.92;;;14.00;99.90;;;;;;5053283;28;20067;-83
2022/09/01 05:03:13;;;;;;;2.72;2.03;;;14.00;99.90;;;;;;5053686;28;20045;-83
2022/09/01 05:05:42;;;;;;;3.00;2.30;;;14.00;99.90;;;;;;5053356;28;20072;-83
2022/09/01 05:08:14;;;;;;;3.30;1.90;;;14.00;99.90;;;;;;5069314;28;20083;-83
2022/09/01 05:10:46;;;;;;;2.67;1.65;;;14.00;99.90;;;;;;5036469;28;20044;-83
2022/09/01 05:13:16;;;;;;;2.70;2.08;;;14.00;99.90;;;;;;5052951;28;20103;-83
2022/09/01 05:15:46;;;;;;;3.58;1.90;;;14.00;99.90;;;;;;5051470;28;20053;-83
2022/09/01 05:18:22;;;;;;;3.05;2.28;;;14.00;99.90;;;;;;5034839;28;20443;-83
2022/09/01 05:20:49;;;;;;;3.05;2.10;;;14.00;99.90;;;;;;5034888;28;20103;-83
2022/09/01 05:23:17;;;;;;;2.70;2.13;;;14.00;99.90;;;;;;5051826;28;20051;-83
2022/09/01 05:25:44;;;;;;;2.75;2.03;;;14.00;99.90;;;;;;5051313;28;20044;-83
2022/09/01 05:28:14;;;;;;;3.08;2.00;;;14.00;99.90;;;;;;5052686;28;20040;-83
2022/09/01 05:30:40;;;;;;;2.90;2.00;;;14.00;99.90;;;;;;5053250;28;20137;-83
2022/09/01 05:33:10;;;;;;;2.22;2.00;;;14.10;99.90;;;;;;5052276;28;20064;-83
2022/09/01 05:35:42;;;;;;;3.15;2.28;;;14.20;99.90;;;;;;5052787;28;20420;-83
2022/09/01 05:38:11;;;;;;;2.95;2.13;;;14.20;99.90;;;;;;5052014;28;20041;-83
2022/09/01 05:40:40;;;;;;;3.80;2.22;;;14.30;99.90;;;;;;5051907;28;20377;-83
2022/09/01 05:43:09;;;;;;;3.53;2.15;;;14.40;99.90;;;;;;5051983;28;20040;-84
2022/09/01 05:45:36;;;;;;;4.13;2.30;;;14.50;99.90;;;;;;5051344;28;20052;-84
2022/09/01 05:48:02;;;;;;;;;;;14.50;99.90;;;;;;5051347;28;20052;-84
2022/09/01 05:50:28;;;;;;;3.92;2.30;;;14.70;99.90;;;;;;5051067;28;19916;-84
2022/09/01 05:52:54;;;;;;;2.85;2.47;;;14.80;99.90;;;;;;5034565;28;20055;-83
2022/09/01 05:55:21;;;;;;;3.15;2.53;;;14.90;99.90;;;;;;5050607;28;20146;-83
2022/09/01 05:57:47;;;;;;;3.42;2.40;;;14.90;99.90;;;;;;5050842;28;20053;-83
2022/09/01 06:00:16;;;;;;;3.88;2.58;;;15.00;99.90;;;;;;5050907;28;20125;-84
2022/09/01 06:02:42;;;;;;;3.40;2.30;;;15.10;99.90;;;;;;5050947;28;20092;-84
2022/09/01 06:05:09;;;;;;;3.55;2.40;;;15.20;99.90;;;;;;5050533;28;20047;-84
2022/09/01 06:07:39;;;;;;;3.65;2.58;;;15.40;99.90;;;;;;5050802;28;20088;-84
2022/09/01 06:10:06;;;;;;;3.40;2.22;;;15.50;99.90;;;;;;5034822;28;20045;-84
2022/09/01 06:12:32;;;;;;;3.00;2.17;;;15.60;99.90;;;;;;5050475;28;20040;-84
2022/09/01 06:14:58;;;;;;;4.05;2.67;;;15.60;99.90;;;;;;5033947;28;20091;-84
2022/09/01 06:17:25;;;;;;;6.35;3.13;;;15.60;99.90;;;;;;5050556;28;20037;-84
2022/09/01 06:19:54;;;;;;;5.35;3.13;;;15.70;99.90;;;;;;5017181;28;20489;-84
2022/09/01 06:22:22;;;;;;;6.95;4.22;;;15.90;99.90;;;;;;5050214;28;20037;-84
2022/09/01 06:24:50;;;;;;;7.03;3.72;;;16.00;99.90;;;;;;5050014;28;20041;-84
2022/09/01 06:27:19;;;;;;;5.18;3.60;;;16.10;99.90;;;;;;5050467;28;20040;-84
2022/09/01 06:29:48;;;;;;;5.80;4.25;;;16.00;99.90;;;;;;5049998;28;20107;-83
2022/09/01 06:32:13;;;;;;;6.18;4.40;;;15.90;99.90;;;;;;5050482;28;20045;-84
2022/09/01 06:34:44;;;;;;;7.88;5.30;;;15.80;99.90;;;;;;5050168;28;20052;-84
2022/09/01 06:37:12;;;;;;;8.18;4.60;;;15.70;99.90;;;;;;5049747;28;20382;-84
2022/09/01 06:39:38;;;;;;;6.47;4.60;;;15.70;99.90;;;;;;5049983;28;20055;-84
2022/09/01 06:42:04;;;;;;;;;;;15.60;99.90;;;;;;5050340;28;20119;-84
2022/09/01 06:44:30;;;;;;;4.90;4.20;;;15.60;99.90;;;;;;5049887;28;20003;-84
2022/09/01 06:46:58;;;;;;;4.80;3.70;;;15.60;99.90;;;;;;5050603;28;20049;-84
2022/09/01 06:49:31;;;;;;;4.47;3.30;;;15.90;99.90;;;;;;5050481;28;20041;-84
2022/09/01 06:52:02;;;;;;;6.13;3.00;;;16.30;99.90;;;;;;5050403;28;20067;-83
2022/09/01 06:54:30;;;;;;;4.78;3.03;;;17.00;99.90;;;;;;5049971;28;20048;-84
2022/09/01 06:56:57;;;;;;;5.47;2.67;;;17.80;99.90;;;;;;5052850;28;20098;-84
2022/09/01 06:59:30;;;;;;;4.10;2.40;;;18.50;99.90;;;;;;5054610;28;20500;-84
2022/09/01 07:02:00;;;;;;;3.78;2.67;;;18.60;99.90;;;;;;5059825;28;20043;-84
2022/09/01 07:04:28;;;;;;;3.65;2.70;;;18.50;99.90;;;;;;5074007;28;20039;-84
2022/09/01 07:06:55;;;;;;;3.25;2.30;;;17.90;99.90;;;;;;5074094;28;20051;-84
2022/09/01 07:09:22;;;;;;;3.05;2.28;;;17.50;99.90;;;;;;5090893;28;20037;-84
2022/09/01 07:11:48;;;;;;;3.60;2.58;;;17.20;99.90;;;;;;5073923;28;20040;-84
2022/09/01 07:14:15;;;;;;;3.47;2.70;;;17.00;99.90;;;;;;5073823;28;20044;-84
2022/09/01 07:16:42;;;;;;;;;;;16.90;99.90;;;;;;5074195;28;20124;-84
2022/09/01 07:19:11;;;;;;;;;;;16.80;99.90;;;;;;5073409;28;19916;-84
2022/09/01 07:21:38;;;;;;;5.28;3.25;;;16.70;99.90;;;;;;5053823;28;19966;-84
2022/09/01 07:24:05;;;;;;;4.90;2.33;;;16.80;99.90;;;;;;5053541;28;20110;-84
2022/09/01 07:26:34;;;;;;;5.57;2.55;;;17.00;99.90;;;;;;5037274;28;20131;-84
2022/09/01 07:29:02;;;;;;;4.60;2.00;;;17.10;99.90;;;;;;5037223;28;20127;-84
2022/09/01 07:31:35;;;;;;;3.60;2.00;;;17.30;99.90;;;;;;5053636;28;20059;-84
2022/09/01 07:34:04;;;;;;;3.65;1.85;;;17.80;99.90;;;;;;5053228;28;20068;-84
2022/09/01 07:36:31;;;;;;;3.55;1.80;;;18.10;99.90;;;;;;5069877;28;20130;-84
2022/09/01 07:39:00;;;;;;;1.85;1.25;;;18.30;99.90;;;;;;5053325;28;20041;-84
2022/09/01 07:41:27;;;;;;;2.00;1.02;;;18.40;99.90;;;;;;5037305;28;20037;-84
2022/09/01 07:43:55;;;;;;;4.38;2.45;;;18.50;99.90;;;;;;5053057;28;20072;-84
2022/09/01 07:46:22;;;;;;;1.95;1.45;;;18.50;99.90;;;;;;5053352;28;20120;-85
2022/09/01 07:48:50;;;;;;;2.47;1.58;;;18.60;99.90;;;;;;5053277;28;20041;-85
2022/09/01 07:51:18;;;;;;;1.88;1.40;;;18.80;99.90;;;;;;5053157;28;20400;-84
2022/09/01 07:53:47;;;;;;;4.40;1.10;;;19.00;99.90;;;;;;5053108;28;20071;-84
2022/09/01 07:56:14;;;;;;;1.80;0.88;;;19.00;99.90;;;;;;5052627;28;20061;-84
2022/09/01 07:58:43;;;;;;;2.25;0.95;;;18.90;99.90;;;;;;5053090;28;20051;-84
2022/09/01 08:01:12;;;;;;;2.00;0.98;;;19.00;99.90;;;;;;5052613;28;20128;-84
2022/09/01 08:03:39;;;;;;;2.28;1.17;;;19.10;99.90;;;;;;5036236;28;20082;-84
2022/09/01 08:06:08;;;;;;;1.58;1.00;;;19.30;99.90;;;;;;5052793;28;20558;-84
2022/09/01 08:08:35;;;;;;;1.52;1.00;;;19.90;99.90;;;;;;5051441;28;20048;-85
2022/09/01 08:11:02;;;;;;;3.05;1.10;;;20.60;99.90;;;;;;5052464;28;20107;-85
2022/09/01 08:13:28;;;;;;;1.88;0.85;;;20.80;99.90;;;;;;5052996;28;20048;-85
2022/09/01 08:15:54;;;;;;;2.20;0.90;;;21.50;99.90;;;;;;5037299;28;20132;-85
2022/09/01 08:18:20;;;;;;;1.30;0.77;;;21.90;99.90;;;;;;5054837;28;20120;-85
2022/09/01 08:20:46;;;;;;;2.90;0.95;;;22.30;99.90;;;;;;5054506;28;20041;-85
2022/09/01 08:23:17;;;;;;;1.75;0.77;;;22.80;99.90;;;;;;5054125;28;20121;-85
2022/09/01 08:25:45;;;;;;;2.25;0.95;;;23.20;99.90;;;;;;5054067;28;20052;-85
2022/09/01 08:28:12;;;;;;;2.53;0.80;;;23.40;99.90;;;;;;5053025;28;20159;-85
2022/09/01 08:30:41;;;;;;;3.17;0.63;;;23.50;99.90;;;;;;5052800;28;20052;-85
2022/09/01 08:33:08;;;;;;;1.17;0.60;;;23.90;99.50;;;;;;5052418;28;20586;-85
2022/09/01 08:35:36;;;;;;;3.60;0.68;;;24.30;99.10;;;;;;5035934;28;20045;-86
2022/09/01 08:38:02;;;;;;;1.83;0.60;;;24.50;98.80;;;;;;5052096;28;20083;-85
2022/09/01 08:40:29;;;;;;;;;;;24.50;98.20;;;;;;5053125;28;20464;-85
2022/09/01 08:42:55;;;;;;;2.65;0.90;;;24.80;97.70;;;;;;5052151;28;20299;-85
2022/09/01 08:45:30;;;;;;;2.90;1.00;;;25.10;97.60;;;;;;5052302;28;20053;-86
2022/09/01 08:48:05;;;;;;;1.85;0.77;;;24.80;96.90;;;;;;5052072;28;20037;-86
2022/09/01 08:50:33;;;;;;;2.13;1.10;;;24.90;97.50;;;;;;5052275;28;20136;-86
2022/09/01 08:53:30;;;;;;;3.17;0.70;;;25.20;97.10;;;;;;5052036;28;20075;-86
2022/09/01 08:55:57;;;;;;;3.47;0.68;;;25.10;96.80;;;;;;5068395;28;20049;-86
2022/09/01 08:58:23;;;;;;;4.95;0.60;;;25.30;97.30;;;;;;5052172;28;20045;-86
2022/09/01 09:00:56;;;;;;;3.83;0.60;;;25.50;97.10;;;;;;5058672;28;20036;-86
2022/09/01 09:03:34;;;;;;;2.88;0.50;;;25.90;96.20;;;;;;5071999;28;20040;-86
2022/09/01 09:06:24;;;;;;;1.77;0.52;;;26.10;95.40;;;;;;5088689;28;20072;-86
2022/09/01 09:08:58;;;;;;;2.60;0.50;;;25.90;96.00;;;;;;5066296;28;20048;-86
2022/09/01 09:11:42;;;;;;;3.10;0.40;;;26.00;95.30;;;;;;5071836;28;20047;-86
2022/09/01 09:14:46;;;;;;;1.73;0.40;;;26.10;95.20;;;;;;5054753;28;20052;-86
2022/09/01 09:17:15;;;;;;;0.70;0.30;;;26.40;95.10;;;;;;5043314;28;20049;-87
2022/09/01 09:19:42;;;;;;;3.55;0.60;;;26.80;95.40;;;;;;5051163;28;20036;-87
2022/09/01 09:22:11;;;;;;;1.13;0.52;;;27.10;95.60;;;;;;5051530;28;20484;-87
2022/09/01 09:24:46;;;;;;;1.77;0.40;;;27.30;94.60;;;;;;5034741;28;20055;-86
2022/09/01 09:27:22;;;;;;;2.45;0.50;;;27.90;95.20;;;;;;5051224;28;20048;-87
2022/09/01 09:29:52;;;;;;;;;;;28.10;94.70;;;;;;5035144;28;20045;-87
2022/09/01 09:32:20;;;;;;;1.08;0.50;;;28.10;93.10;;;;;;5051086;28;20030;-87
2022/09/01 09:34:47;;;;;;;1.38;0.50;;;28.10;94.00;;;;;;5051414;28;20436;-87
2022/09/01 09:37:23;;;;;;;1.45;0.52;;;28.20;93.80;;;;;;5050822;28;20397;-87
2022/09/01 09:40:09;;;;;;;1.25;0.90;;;28.20;93.20;;;;;;5051416;28;20489;-87
2022/09/01 09:42:38;;;;;;;2.55;0.60;;;28.20;92.70;;;;;;5051332;28;20068;-87
2022/09/01 09:45:06;;;;;;;2.38;0.77;;;28.30;92.70;;;;;;5067306;28;20113;-88
2022/09/01 09:47:35;;;;;;;1.35;0.43;;;28.50;93.20;;;;;;5050983;28;20041;-86
2022/09/01 09:50:16;;;;;;;1.30;0.50;;;28.50;92.30;;;;;;5051188;28;20036;-86
2022/09/01 09:52:45;;;;;;;1.77;0.40;;;28.40;92.40;;;;;;5051165;28;20041;-87
2022/09/01 09:55:22;;;;;;;1.30;0.45;;;28.50;92.90;;;;;;5066929;28;20053;-87
2022/09/01 09:57:49;;;;;;;2.10;0.60;;;28.70;92.00;;;;;;5050845;28;20056;-87
2022/09/01 10:00:23;;;;;;;2.15;0.60;;;28.70;92.00;;;;;;5034777;28;20489;-87
2022/09/01 10:03:01;;;;;;;2.30;0.50;;;29.10;92.00;;;;;;5050768;28;20053;-87
2022/09/01 10:06:02;;;;;;;1.75;0.60;;;29.40;91.40;;;;;;5067547;28;20063;-87
2022/09/01 10:08:36;;;;;;;0.93;0.40;;;29.20;91.30;;;;;;5029958;28;20144;-86
2022/09/01 10:11:04;;;;;;;2.15;0.50;;;29.40;92.10;;;;;;5061479;28;20084;-87
2022/09/01 10:13:31;;;;;;;1.42;0.70;;;28.80;91.60;;;;;;5050942;28;20049;-87
2022/09/01 10:15:59;;;;;;;1.85;0.40;;;29.10;91.60;;;;;;5050401;28;20508;-87
2022/09/01 10:18:41;;;;;;;3.60;0.70;;;29.20;91.00;;;;;;5050468;28;20041;-87
2022/09/01 10:21:24;;;;;;;2.38;0.50;;;29.40;90.30;;;;;;5050173;28;20084;-87
2022/09/01 10:23:50;;;;;;;2.15;0.50;;;29.50;90.60;;;;;;5053973;28;20059;-86
2022/09/01 10:26:25;;;;;;;1.90;0.60;;;29.60;90.90;;;;;;5070761;28;20044;-87
2022/09/01 10:29:00;;;;;;;1.30;0.60;;;29.80;90.40;;;;;;5070479;28;20500;-87
2022/09/01 10:31:26;;;;;;;0.80;0.30;;;29.30;90.50;;;;;;5069791;28;20052;-87
2022/09/01 10:33:52;;;;;;;1.42;0.50;;;29.40;89.20;;;;;;5070506;28;20075;-87
2022/09/01 10:36:21;;;;;;;1.08;0.30;;;29.00;88.30;;;;;;5070360;28;20044;-87
2022/09/01 10:38:47;;;;;;;1.55;0.40;;;28.70;90.00;;;;;;5070331;28;20049;-87
2022/09/01 10:41:43;;;;;;;1.35;0.40;;;28.90;90.40;;;;;;5070135;28;20098;-86
2022/09/01 10:44:17;;;;;;;1.95;0.50;;;28.70;89.30;;;;;;5056709;28;20135;-87
2022/09/01 10:46:44;;;;;;;2.60;0.40;;;28.40;90.00;;;;;;5050200;28;20041;-87
2022/09/01 10:49:45;;;;;;;0.57;0.40;;;28.00;90.20;;;;;;5050092;28;20049;-87
2022/09/01 10:52:40;;;;;;;3.30;0.80;;;27.70;90.40;;;;;;5037655;28;20052;-87
2022/09/01 10:55:29;;;;;;;2.55;0.50;;;27.50;90.50;;;;;;5049717;28;20133;-87
2022/09/01 10:58:07;;;;;;;0.82;0.30;;;28.00;90.90;;;;;;5067258;28;20052;-87
2022/09/01 11:00:36;;;;;;;1.50;0.28;;;28.80;90.30;;;;;;5050231;28;20037;-87
2022/09/01 11:03:10;;;;;;;2.17;0.20;;;29.20;87.70;;;;;;5033486;28;20087;-87
2022/09/01 11:05:57;;;;;;;0.70;0.30;;;28.60;87.60;;;;;;5050334;28;20083;-86
2022/09/01 11:08:26;;;;;;;1.98;0.30;;;28.20;88.60;;;;;;5050052;28;20385;-86
2022/09/01 11:11:10;;;;;;;1.05;0.30;;;28.40;88.10;;;;;;5033564;28;20485;-87
2022/09/01 11:13:45;;;;;;;0.60;0.32;;;28.70;86.10;;;;;;5033885;28;20488;-87
2022/09/01 11:16:28;;;;;;;2.05;0.30;;;28.30;86.50;;;;;;5049668;28;20037;-87
2022/09/01 11:19:15;;;;;;;1.80;0.40;;;27.60;87.40;;;;;;5049471;28;20106;-87
2022/09/01 11:21:41;;;;;;;0.70;0.30;;;27.70;87.20;;;;;;5050058;28;20036;-87
2022/09/01 11:24:38;;;;;;;1.20;0.20;;;28.50;87.90;;;;;;5050122;28;20078;-87
2022/09/01 11:27:09;;;;;;;1.58;0.30;;;29.10;85.10;;;;;;5050051;28;20071;-87
2022/09/01 11:29:58;;;;;;;1.27;0.20;;;29.40;85.70;;;;;;5033582;28;20053;-88
2022/09/01 11:32:34;;;;;;;1.08;0.35;;;28.90;86.30;;;;;;5049859;28;20051;-88
2022/09/01 11:35:22;;;;;;;1.50;0.40;;;28.90;83.80;;;;;;5049349;28;20041;-88
2022/09/01 11:37:50;;;;;;;1.00;0.20;;;29.20;85.30;;;;;;5049800;28;20044;-88
2022/09/01 11:40:27;;;;;;;0.57;0.20;;;29.80;86.00;;;;;;5033513;28;20049;-88
2022/09/01 11:42:55;;;;;;;1.75;0.20;;;30.00;83.50;;;;;;5035579;28;20044;-88
2022/09/01 11:45:31;;;;;;;1.33;0.30;;;29.70;82.70;;;;;;5037149;28;20056;-87
2022/09/01 11:48:16;;;;;;;1.60;0.40;;;28.90;82.00;;;;;;5053355;28;20098;-88
2022/09/01 11:50:42;;;;;;;0.50;0.20;;;29.30;83.00;;;;;;5053162;28;20037;-88
2022/09/01 11:53:13;;;;;;;1.25;0.38;;;29.80;82.00;;;;;;5053368;28;20706;-88
2022/09/01 11:55:47;;;;;;;1.30;0.30;;;30.20;82.50;;;;;;5053197;28;20198;-88
2022/09/01 11:58:29;;;;;;;1.55;0.68;;;30.20;81.90;;;;;;5053311;28;20553;-88
2022/09/01 12:01:42;;;;;;;1.48;0.30;;;30.80;81.90;;;;;;5052870;28;20467;-88
2022/09/01 12:04:22;;;;;;;1.98;0.30;;;31.10;82.00;;;;;;5044215;28;20052;-88
2022/09/01 12:06:54;;;;;;;0.60;0.20;;;30.50;80.30;;;;;;5053129;28;20106;-88
2022/09/01 12:09:20;;;;;;;1.02;0.30;;;30.40;80.50;;;;;;5052993;28;20137;-88
2022/09/01 12:11:47;;;;;;;2.03;0.20;;;30.40;81.60;;;;;;5053121;28;20045;-88
2022/09/01 12:14:19;;;;;;;0.75;0.30;;;30.40;81.40;;;;;;5052819;28;20049;-88
2022/09/01 12:16:56;;;;;;;0.60;0.25;;;30.60;80.70;;;;;;5070466;28;20052;-89
2022/09/01 12:19:25;;;;;;;0.82;0.40;;;30.80;80.40;;;;;;5037560;28;20044;-89
2022/09/01 12:22:05;;;;;;;2.20;0.30;;;30.50;81.00;;;;;;5053843;28;20045;-88
2022/09/01 12:24:35;;;;;;;1.25;0.38;;;29.00;82.00;;;;;;5054194;28;20041;-88
2022/09/01 12:27:02;;;;;;;1.02;0.28;;;29.70;83.80;;;;;;5054017;28;20045;-88
2022/09/01 12:29:30;;;;;;;1.42;0.30;;;30.30;82.30;;;;;;5070662;28;20044;-88
2022/09/01 12:31:57;;;;;;;1.60;0.20;;;30.40;82.50;;;;;;5054188;28;20083;-88
2022/09/01 12:34:32;;;;;;;1.58;0.38;;;30.60;81.60;;;;;;5053976;28;20041;-88
2022/09/01 12:37:09;;;;;;;2.60;0.30;;;30.30;81.50;;;;;;5057878;28;20040;-88
2022/09/01 12:39:40;;;;;;;2.90;0.35;;;30.70;81.50;;;;;;5074363;28;20565;-89
2022/09/01 12:42:23;;;;;;;0.65;0.28;;;30.70;81.70;;;;;;5073427;28;20093;-88
2022/09/01 12:44:51;;;;;;;0.82;0.30;;;30.80;82.80;;;;;;5074215;28;20566;-88
2022/09/01 12:47:32;;;;;;;3.33;0.40;;;31.20;82.90;;;;;;5074052;28;20040;-88
2022/09/01 12:49:59;;;;;;;0.85;0.30;;;30.60;82.00;;;;;;5073358;28;20047;-88
2022/09/01 12:52:26;;;;;;;1.40;0.30;;;30.70;81.80;;;;;;5070471;28;20050;-88
2022/09/01 12:54:58;;;;;;;1.45;0.40;;;30.00;81.80;;;;;;5052370;28;20084;-88
2022/09/01 12:57:41;;;;;;;1.45;0.30;;;29.60;82.20;;;;;;5053422;28;20041;-88
2022/09/01 13:00:10;;;;;;;0.75;0.30;;;29.10;82.00;;;;;;5053259;28;20051;-88
2022/09/01 13:02:39;;;;;;;0.45;0.20;;;29.50;81.80;;;;;;5052612;28;20041;-88
2022/09/01 13:05:28;;;;;;;1.95;0.25;;;29.60;82.60;;;;;;5052029;28;20427;-88
2022/09/01 13:08:00;;;;;;;3.03;0.47;;;29.40;82.20;;;;;;5051640;28;20041;-88
2022/09/01 13:10:31;;;;;;;0.70;0.30;;;29.30;82.40;;;;;;5068286;28;20068;-88
2022/09/01 13:12:56;;;;;;;0.60;0.30;;;29.00;81.70;;;;;;5051811;28;20492;-88